sensor_id;sensor_type;location;lat;lon;timestamp;pressure;altitude;pressure_sealevel;temperature;humidity
77855;BME280;67046;50.088;14.336;2023-03-19T00:00:00;97394.59;;;8.32;53.35
77855;BME280;67046;50.088;14.336;2023-03-19T00:00:33;97392.17;;;8.31;53.19
77855;BME280;67046;50.088;14.336;2023-03-19T00:01:24;97393.75;;;8.28;53.17
77855;BME280;67046;50.088;14.336;2023-03-19T00:01:56;97401.44;;;8.25;53.34
77855;BME280;67046;50.088;14.336;2023-03-19T00:02:27;97398.13;;;8.24;53.12
77855;BME280;67046;50.088;14.336;2023-03-19T00:02:58;97399.67;;;8.23;53.21
77855;BME280;67046;50.088;14.336;2023-03-19T00:03:30;97400.04;;;8.23;53.44
77855;BME280;67046;50.088;14.336;2023-03-19T00:04:01;97401.20;;;8.22;53.35
77855;BME280;67046;50.088;14.336;2023-03-19T00:04:33;97398.25;;;8.22;53.50
77855;BME280;67046;50.088;14.336;2023-03-19T00:05:04;97395.54;;;8.21;53.60
77855;BME280;67046;50.088;14.336;2023-03-19T00:05:36;97399.27;;;8.21;53.63
77855;BME280;67046;50.088;14.336;2023-03-19T00:06:07;97398.55;;;8.21;53.17
77855;BME280;67046;50.088;14.336;2023-03-19T00:06:38;97399.52;;;8.20;53.64
77855;BME280;67046;50.088;14.336;2023-03-19T00:07:10;97397.25;;;8.20;53.26
77855;BME280;67046;50.088;14.336;2023-03-19T00:07:41;97400.52;;;8.20;53.33
77855;BME280;67046;50.088;14.336;2023-03-19T00:08:12;97398.77;;;8.20;53.51
77855;BME280;67046;50.088;14.336;2023-03-19T00:08:43;97397.88;;;8.20;53.49
77855;BME280;67046;50.088;14.336;2023-03-19T00:09:15;97395.70;;;8.19;53.42
77855;BME280;67046;50.088;14.336;2023-03-19T00:09:46;97402.14;;;8.19;53.63
77855;BME280;67046;50.088;14.336;2023-03-19T00:10:18;97400.36;;;8.18;53.48
77855;BME280;67046;50.088;14.336;2023-03-19T00:10:49;97406.23;;;8.17;53.90
77855;BME280;67046;50.088;14.336;2023-03-19T00:11:20;97405.48;;;8.16;53.70
77855;BME280;67046;50.088;14.336;2023-03-19T00:11:55;97406.32;;;8.16;53.54
77855;BME280;67046;50.088;14.336;2023-03-19T00:12:26;97406.80;;;8.15;53.45
77855;BME280;67046;50.088;14.336;2023-03-19T00:12:57;97410.95;;;8.14;53.69
77855;BME280;67046;50.088;14.336;2023-03-19T00:13:29;97408.89;;;8.14;53.62
77855;BME280;67046;50.088;14.336;2023-03-19T00:14:00;97411.14;;;8.13;53.46
77855;BME280;67046;50.088;14.336;2023-03-19T00:14:31;97408.27;;;8.12;53.59
77855;BME280;67046;50.088;14.336;2023-03-19T00:15:03;97409.80;;;8.12;53.76
77855;BME280;67046;50.088;14.336;2023-03-19T00:15:34;97409.77;;;8.12;53.36
77855;BME280;67046;50.088;14.336;2023-03-19T00:16:06;97411.83;;;8.13;53.57
77855;BME280;67046;50.088;14.336;2023-03-19T00:16:38;97412.80;;;8.12;53.67
77855;BME280;67046;50.088;14.336;2023-03-19T00:17:10;97410.74;;;8.12;53.54
77855;BME280;67046;50.088;14.336;2023-03-19T00:17:41;97412.65;;;8.11;53.43
77855;BME280;67046;50.088;14.336;2023-03-19T00:18:13;97413.98;;;8.11;53.47
77855;BME280;67046;50.088;14.336;2023-03-19T00:18:44;97412.80;;;8.10;53.49
77855;BME280;67046;50.088;14.336;2023-03-19T00:19:16;97413.04;;;8.09;53.70
77855;BME280;67046;50.088;14.336;2023-03-19T00:19:47;97412.69;;;8.08;53.55
77855;BME280;67046;50.088;14.336;2023-03-19T00:20:18;97410.14;;;8.07;53.67
77855;BME280;67046;50.088;14.336;2023-03-19T00:20:52;97414.94;;;8.07;53.65
77855;BME280;67046;50.088;14.336;2023-03-19T00:21:23;97415.33;;;8.06;53.70
77855;BME280;67046;50.088;14.336;2023-03-19T00:21:54;97412.30;;;8.05;53.80
77855;BME280;67046;50.088;14.336;2023-03-19T00:22:26;97411.41;;;8.04;53.67
77855;BME280;67046;50.088;14.336;2023-03-19T00:22:58;97412.35;;;8.03;53.63
77855;BME280;67046;50.088;14.336;2023-03-19T00:23:30;97413.30;;;8.03;53.53
77855;BME280;67046;50.088;14.336;2023-03-19T00:24:01;97412.83;;;8.01;53.66
77855;BME280;67046;50.088;14.336;2023-03-19T00:24:33;97412.97;;;8.01;53.65
77855;BME280;67046;50.088;14.336;2023-03-19T00:25:06;97412.58;;;8.00;53.75
77855;BME280;67046;50.088;14.336;2023-03-19T00:25:38;97410.40;;;7.99;53.56
77855;BME280;67046;50.088;14.336;2023-03-19T00:26:09;97412.95;;;7.98;53.73
77855;BME280;67046;50.088;14.336;2023-03-19T00:26:42;97410.46;;;7.97;53.92
77855;BME280;67046;50.088;14.336;2023-03-19T00:27:13;97412.88;;;7.97;53.64
77855;BME280;67046;50.088;14.336;2023-03-19T00:27:44;97413.08;;;7.97;53.88
77855;BME280;67046;50.088;14.336;2023-03-19T00:28:16;97413.81;;;7.98;53.87
77855;BME280;67046;50.088;14.336;2023-03-19T00:28:48;97409.96;;;7.98;53.76
77855;BME280;67046;50.088;14.336;2023-03-19T00:29:19;97414.30;;;7.99;53.70
77855;BME280;67046;50.088;14.336;2023-03-19T00:29:50;97408.95;;;7.99;53.76
77855;BME280;67046;50.088;14.336;2023-03-19T00:30:22;97409.90;;;8.00;53.81
77855;BME280;67046;50.088;14.336;2023-03-19T00:30:54;97410.21;;;8.00;53.64
77855;BME280;67046;50.088;14.336;2023-03-19T00:31:26;97409.33;;;8.00;53.62
77855;BME280;67046;50.088;14.336;2023-03-19T00:31:58;97409.63;;;8.02;53.81
77855;BME280;67046;50.088;14.336;2023-03-19T00:32:29;97408.27;;;8.00;53.67
77855;BME280;67046;50.088;14.336;2023-03-19T00:33:01;97408.83;;;8.01;53.83
77855;BME280;67046;50.088;14.336;2023-03-19T00:33:32;97409.67;;;8.01;53.68
77855;BME280;67046;50.088;14.336;2023-03-19T00:34:04;97408.64;;;8.02;54.04
77855;BME280;67046;50.088;14.336;2023-03-19T00:34:35;97405.34;;;8.03;53.34
77855;BME280;67046;50.088;14.336;2023-03-19T00:35:07;97408.06;;;8.02;53.56
77855;BME280;67046;50.088;14.336;2023-03-19T00:35:38;97408.63;;;8.03;53.73
77855;BME280;67046;50.088;14.336;2023-03-19T00:36:10;97411.58;;;8.04;53.78
77855;BME280;67046;50.088;14.336;2023-03-19T00:36:42;97408.84;;;8.02;53.86
77855;BME280;67046;50.088;14.336;2023-03-19T00:37:13;97407.73;;;7.99;53.95
77855;BME280;67046;50.088;14.336;2023-03-19T00:37:46;97408.14;;;7.99;53.68
77855;BME280;67046;50.088;14.336;2023-03-19T00:38:17;97409.63;;;7.99;54.00
77855;BME280;67046;50.088;14.336;2023-03-19T00:38:49;97407.25;;;7.99;53.72
77855;BME280;67046;50.088;14.336;2023-03-19T00:39:20;97401.54;;;7.98;53.82
77855;BME280;67046;50.088;14.336;2023-03-19T00:39:51;97402.42;;;7.98;53.78
77855;BME280;67046;50.088;14.336;2023-03-19T00:40:22;97405.06;;;7.98;53.89
77855;BME280;67046;50.088;14.336;2023-03-19T00:40:54;97406.60;;;7.98;54.05
77855;BME280;67046;50.088;14.336;2023-03-19T00:41:25;97408.83;;;7.99;53.89
77855;BME280;67046;50.088;14.336;2023-03-19T00:41:57;97408.87;;;7.98;54.03
77855;BME280;67046;50.088;14.336;2023-03-19T00:42:29;97411.90;;;7.98;54.14
77855;BME280;67046;50.088;14.336;2023-03-19T00:43:00;97412.67;;;7.97;54.10
77855;BME280;67046;50.088;14.336;2023-03-19T00:43:32;97412.56;;;7.97;54.07
77855;BME280;67046;50.088;14.336;2023-03-19T00:44:03;97414.77;;;7.96;54.30
77855;BME280;67046;50.088;14.336;2023-03-19T00:44:36;97412.13;;;7.96;54.11
77855;BME280;67046;50.088;14.336;2023-03-19T00:45:07;97411.91;;;7.97;54.09
77855;BME280;67046;50.088;14.336;2023-03-19T00:45:39;97416.59;;;7.96;54.34
77855;BME280;67046;50.088;14.336;2023-03-19T00:46:11;97410.84;;;7.96;54.35
77855;BME280;67046;50.088;14.336;2023-03-19T00:46:43;97416.07;;;7.96;54.42
77855;BME280;67046;50.088;14.336;2023-03-19T00:47:15;97414.13;;;7.95;54.02
77855;BME280;67046;50.088;14.336;2023-03-19T00:47:47;97411.94;;;7.95;53.97
77855;BME280;67046;50.088;14.336;2023-03-19T00:48:18;97410.85;;;7.96;54.25
77855;BME280;67046;50.088;14.336;2023-03-19T00:48:51;97412.55;;;7.96;54.11
77855;BME280;67046;50.088;14.336;2023-03-19T00:49:25;97411.45;;;7.97;54.29
77855;BME280;67046;50.088;14.336;2023-03-19T00:49:56;97411.08;;;7.97;54.08
77855;BME280;67046;50.088;14.336;2023-03-19T00:50:28;97407.77;;;7.97;54.50
77855;BME280;67046;50.088;14.336;2023-03-19T00:51:03;97409.23;;;7.96;54.40
77855;BME280;67046;50.088;14.336;2023-03-19T00:51:35;97406.11;;;7.96;54.63
77855;BME280;67046;50.088;14.336;2023-03-19T00:52:07;97405.42;;;7.96;54.01
77855;BME280;67046;50.088;14.336;2023-03-19T00:52:38;97408.78;;;7.95;54.35
77855;BME280;67046;50.088;14.336;2023-03-19T00:53:09;97407.40;;;7.95;54.14
77855;BME280;67046;50.088;14.336;2023-03-19T00:53:42;97405.46;;;7.96;54.69
77855;BME280;67046;50.088;14.336;2023-03-19T00:54:13;97408.09;;;7.95;54.37
77855;BME280;67046;50.088;14.336;2023-03-19T00:54:45;97412.02;;;7.95;54.43
77855;BME280;67046;50.088;14.336;2023-03-19T00:55:17;97408.30;;;7.95;54.45
77855;BME280;67046;50.088;14.336;2023-03-19T00:55:48;97407.49;;;7.95;54.36
77855;BME280;67046;50.088;14.336;2023-03-19T00:56:19;97407.49;;;7.95;54.52
77855;BME280;67046;50.088;14.336;2023-03-19T00:56:50;97412.10;;;7.96;54.41
77855;BME280;67046;50.088;14.336;2023-03-19T00:57:22;97406.88;;;7.95;54.52
77855;BME280;67046;50.088;14.336;2023-03-19T00:57:53;97408.61;;;7.95;54.37
77855;BME280;67046;50.088;14.336;2023-03-19T00:58:25;97411.01;;;7.96;54.39
77855;BME280;67046;50.088;14.336;2023-03-19T00:58:56;97408.98;;;7.95;54.21
77855;BME280;67046;50.088;14.336;2023-03-19T00:59:27;97411.17;;;7.96;54.65
77855;BME280;67046;50.088;14.336;2023-03-19T00:59:59;97409.27;;;7.96;54.65
77855;BME280;67046;50.088;14.336;2023-03-19T01:00:30;97412.91;;;7.96;54.47
77855;BME280;67046;50.088;14.336;2023-03-19T01:01:03;97411.81;;;7.96;54.32
77855;BME280;67046;50.088;14.336;2023-03-19T01:01:35;97411.92;;;7.97;54.53
77855;BME280;67046;50.088;14.336;2023-03-19T01:02:06;97411.34;;;7.95;54.50
77855;BME280;67046;50.088;14.336;2023-03-19T01:02:37;97409.84;;;7.94;54.35
77855;BME280;67046;50.088;14.336;2023-03-19T01:03:08;97404.48;;;7.94;54.63
77855;BME280;67046;50.088;14.336;2023-03-19T01:03:40;97405.46;;;7.96;54.72
77855;BME280;67046;50.088;14.336;2023-03-19T01:04:11;97404.73;;;7.96;54.33
77855;BME280;67046;50.088;14.336;2023-03-19T01:04:43;97405.55;;;7.96;54.38
77855;BME280;67046;50.088;14.336;2023-03-19T01:05:15;97406.27;;;7.96;54.52
77855;BME280;67046;50.088;14.336;2023-03-19T01:05:47;97403.27;;;7.96;54.29
77855;BME280;67046;50.088;14.336;2023-03-19T01:06:19;97404.98;;;7.96;54.47
77855;BME280;67046;50.088;14.336;2023-03-19T01:06:51;97405.45;;;7.97;54.62
77855;BME280;67046;50.088;14.336;2023-03-19T01:07:22;97401.45;;;7.96;54.54
77855;BME280;67046;50.088;14.336;2023-03-19T01:07:54;97400.08;;;7.96;54.42
77855;BME280;67046;50.088;14.336;2023-03-19T01:08:26;97402.02;;;7.96;54.27
77855;BME280;67046;50.088;14.336;2023-03-19T01:08:57;97401.75;;;7.94;54.33
77855;BME280;67046;50.088;14.336;2023-03-19T01:09:29;97398.99;;;7.94;54.46
77855;BME280;67046;50.088;14.336;2023-03-19T01:10:00;97401.31;;;7.94;54.68
77855;BME280;67046;50.088;14.336;2023-03-19T01:10:32;97401.02;;;7.94;54.38
77855;BME280;67046;50.088;14.336;2023-03-19T01:11:14;97399.76;;;7.95;54.41
77855;BME280;67046;50.088;14.336;2023-03-19T01:11:47;97398.66;;;7.95;54.38
77855;BME280;67046;50.088;14.336;2023-03-19T01:12:18;97397.66;;;7.95;54.59
77855;BME280;67046;50.088;14.336;2023-03-19T01:12:50;97395.38;;;7.96;54.73
77855;BME280;67046;50.088;14.336;2023-03-19T01:13:21;97395.70;;;7.96;54.86
77855;BME280;67046;50.088;14.336;2023-03-19T01:13:53;97394.81;;;7.96;54.66
77855;BME280;67046;50.088;14.336;2023-03-19T01:14:24;97392.22;;;7.96;54.74
77855;BME280;67046;50.088;14.336;2023-03-19T01:14:56;97391.90;;;7.96;54.56
77855;BME280;67046;50.088;14.336;2023-03-19T01:15:27;97389.99;;;7.95;54.68
77855;BME280;67046;50.088;14.336;2023-03-19T01:15:58;97390.73;;;7.95;54.57
77855;BME280;67046;50.088;14.336;2023-03-19T01:16:30;97388.38;;;7.95;54.89
77855;BME280;67046;50.088;14.336;2023-03-19T01:17:01;97387.42;;;7.94;54.60
77855;BME280;67046;50.088;14.336;2023-03-19T01:17:32;97388.85;;;7.94;54.97
77855;BME280;67046;50.088;14.336;2023-03-19T01:18:04;97387.56;;;7.93;54.57
77855;BME280;67046;50.088;14.336;2023-03-19T01:18:36;97389.23;;;7.92;54.36
77855;BME280;67046;50.088;14.336;2023-03-19T01:19:07;97389.39;;;7.93;54.84
77855;BME280;67046;50.088;14.336;2023-03-19T01:19:38;97391.30;;;7.92;54.40
77855;BME280;67046;50.088;14.336;2023-03-19T01:20:10;97390.47;;;7.91;54.57
77855;BME280;67046;50.088;14.336;2023-03-19T01:20:48;97391.77;;;7.91;54.54
77855;BME280;67046;50.088;14.336;2023-03-19T01:21:19;97395.42;;;7.90;55.00
77855;BME280;67046;50.088;14.336;2023-03-19T01:21:51;97393.86;;;7.88;54.93
77855;BME280;67046;50.088;14.336;2023-03-19T01:22:23;97397.48;;;7.89;54.81
77855;BME280;67046;50.088;14.336;2023-03-19T01:22:54;97396.17;;;7.88;54.56
77855;BME280;67046;50.088;14.336;2023-03-19T01:23:26;97396.23;;;7.88;54.49
77855;BME280;67046;50.088;14.336;2023-03-19T01:23:57;97395.90;;;7.88;54.67
77855;BME280;67046;50.088;14.336;2023-03-19T01:24:30;97397.16;;;7.87;54.56
77855;BME280;67046;50.088;14.336;2023-03-19T01:25:03;97399.83;;;7.87;54.76
77855;BME280;67046;50.088;14.336;2023-03-19T01:25:34;97400.56;;;7.87;54.93
77855;BME280;67046;50.088;14.336;2023-03-19T01:26:06;97401.65;;;7.87;54.71
77855;BME280;67046;50.088;14.336;2023-03-19T01:26:38;97402.17;;;7.87;54.85
77855;BME280;67046;50.088;14.336;2023-03-19T01:27:09;97401.54;;;7.86;54.79
77855;BME280;67046;50.088;14.336;2023-03-19T01:27:41;97405.64;;;7.86;55.15
77855;BME280;67046;50.088;14.336;2023-03-19T01:28:12;97404.15;;;7.85;54.84
77855;BME280;67046;50.088;14.336;2023-03-19T01:28:44;97406.10;;;7.85;55.08
77855;BME280;67046;50.088;14.336;2023-03-19T01:29:15;97403.39;;;7.85;54.95
77855;BME280;67046;50.088;14.336;2023-03-19T01:29:46;97404.77;;;7.84;54.87
77855;BME280;67046;50.088;14.336;2023-03-19T01:30:18;97404.55;;;7.83;55.01
77855;BME280;67046;50.088;14.336;2023-03-19T01:30:49;97403.35;;;7.81;55.16
77855;BME280;67046;50.088;14.336;2023-03-19T01:31:21;97404.41;;;7.81;55.07
77855;BME280;67046;50.088;14.336;2023-03-19T01:31:52;97405.39;;;7.81;54.84
77855;BME280;67046;50.088;14.336;2023-03-19T01:32:24;97400.23;;;7.80;55.05
77855;BME280;67046;50.088;14.336;2023-03-19T01:32:55;97406.23;;;7.80;55.25
77855;BME280;67046;50.088;14.336;2023-03-19T01:33:26;97406.79;;;7.79;54.95
77855;BME280;67046;50.088;14.336;2023-03-19T01:33:58;97405.96;;;7.80;55.41
77855;BME280;67046;50.088;14.336;2023-03-19T01:34:29;97404.48;;;7.80;55.22
77855;BME280;67046;50.088;14.336;2023-03-19T01:35:00;97405.55;;;7.81;55.03
77855;BME280;67046;50.088;14.336;2023-03-19T01:35:31;97400.88;;;7.79;55.02
77855;BME280;67046;50.088;14.336;2023-03-19T01:36:03;97402.21;;;7.79;54.92
77855;BME280;67046;50.088;14.336;2023-03-19T01:36:35;97404.35;;;7.79;55.20
77855;BME280;67046;50.088;14.336;2023-03-19T01:37:06;97404.44;;;7.79;55.31
77855;BME280;67046;50.088;14.336;2023-03-19T01:37:38;97403.17;;;7.79;55.15
77855;BME280;67046;50.088;14.336;2023-03-19T01:38:09;97405.13;;;7.79;55.00
77855;BME280;67046;50.088;14.336;2023-03-19T01:38:41;97402.70;;;7.79;55.28
77855;BME280;67046;50.088;14.336;2023-03-19T01:39:12;97407.52;;;7.79;55.17
77855;BME280;67046;50.088;14.336;2023-03-19T01:39:43;97406.58;;;7.80;55.09
77855;BME280;67046;50.088;14.336;2023-03-19T01:40:15;97408.23;;;7.79;55.15
77855;BME280;67046;50.088;14.336;2023-03-19T01:40:47;97409.41;;;7.77;55.40
77855;BME280;67046;50.088;14.336;2023-03-19T01:41:19;97407.19;;;7.77;55.37
77855;BME280;67046;50.088;14.336;2023-03-19T01:41:50;97409.09;;;7.76;55.45
77855;BME280;67046;50.088;14.336;2023-03-19T01:42:22;97409.30;;;7.75;55.34
77855;BME280;67046;50.088;14.336;2023-03-19T01:43:30;97411.02;;;7.73;55.49
77855;BME280;67046;50.088;14.336;2023-03-19T01:44:02;97411.09;;;7.72;55.59
77855;BME280;67046;50.088;14.336;2023-03-19T01:44:35;97413.58;;;7.70;55.42
77855;BME280;67046;50.088;14.336;2023-03-19T01:45:30;97406.98;;;7.70;55.99
77855;BME280;67046;50.088;14.336;2023-03-19T01:46:11;97405.71;;;7.68;55.59
77855;BME280;67046;50.088;14.336;2023-03-19T01:46:45;97411.38;;;7.65;55.62
77855;BME280;67046;50.088;14.336;2023-03-19T01:47:24;97406.08;;;7.64;55.57
77855;BME280;67046;50.088;14.336;2023-03-19T01:47:59;97410.30;;;7.64;55.87
77855;BME280;67046;50.088;14.336;2023-03-19T01:48:45;97405.96;;;7.64;55.76
77855;BME280;67046;50.088;14.336;2023-03-19T01:49:18;97408.27;;;7.62;55.98
77855;BME280;67046;50.088;14.336;2023-03-19T01:49:53;97405.96;;;7.61;55.66
77855;BME280;67046;50.088;14.336;2023-03-19T01:50:39;97405.64;;;7.61;56.00
77855;BME280;67046;50.088;14.336;2023-03-19T01:51:15;97404.31;;;7.60;55.95
77855;BME280;67046;50.088;14.336;2023-03-19T01:51:47;97403.19;;;7.60;56.08
77855;BME280;67046;50.088;14.336;2023-03-19T01:52:19;97404.25;;;7.59;55.86
77855;BME280;67046;50.088;14.336;2023-03-19T01:52:51;97402.66;;;7.59;56.14
77855;BME280;67046;50.088;14.336;2023-03-19T01:53:25;97407.96;;;7.59;56.16
77855;BME280;67046;50.088;14.336;2023-03-19T01:54:00;97405.26;;;7.58;55.96
77855;BME280;67046;50.088;14.336;2023-03-19T01:54:32;97402.31;;;7.58;55.96
77855;BME280;67046;50.088;14.336;2023-03-19T01:55:05;97404.61;;;7.58;55.95
77855;BME280;67046;50.088;14.336;2023-03-19T01:55:38;97404.37;;;7.59;55.99
77855;BME280;67046;50.088;14.336;2023-03-19T01:56:19;97401.53;;;7.59;55.90
77855;BME280;67046;50.088;14.336;2023-03-19T01:56:56;97399.27;;;7.59;56.63
77855;BME280;67046;50.088;14.336;2023-03-19T01:57:29;97397.36;;;7.59;56.18
77855;BME280;67046;50.088;14.336;2023-03-19T01:58:02;97395.42;;;7.59;56.14
77855;BME280;67046;50.088;14.336;2023-03-19T01:58:38;97394.65;;;7.58;56.43
77855;BME280;67046;50.088;14.336;2023-03-19T01:59:16;97397.82;;;7.58;56.41
77855;BME280;67046;50.088;14.336;2023-03-19T01:59:55;97389.66;;;7.57;56.51
77855;BME280;67046;50.088;14.336;2023-03-19T02:00:29;97396.87;;;7.57;56.04
77855;BME280;67046;50.088;14.336;2023-03-19T02:01:00;97395.18;;;7.57;56.11
77855;BME280;67046;50.088;14.336;2023-03-19T02:01:35;97387.39;;;7.57;56.23
77855;BME280;67046;50.088;14.336;2023-03-19T02:02:24;97387.23;;;7.57;56.50
77855;BME280;67046;50.088;14.336;2023-03-19T02:02:59;97386.39;;;7.57;56.17
77855;BME280;67046;50.088;14.336;2023-03-19T02:03:32;97387.13;;;7.57;56.50
77855;BME280;67046;50.088;14.336;2023-03-19T02:04:04;97384.81;;;7.57;56.41
77855;BME280;67046;50.088;14.336;2023-03-19T02:04:38;97382.29;;;7.57;56.06
77855;BME280;67046;50.088;14.336;2023-03-19T02:05:12;97382.52;;;7.58;56.31
77855;BME280;67046;50.088;14.336;2023-03-19T02:05:46;97382.27;;;7.59;55.92
77855;BME280;67046;50.088;14.336;2023-03-19T02:06:19;97379.73;;;7.59;55.80
77855;BME280;67046;50.088;14.336;2023-03-19T02:06:54;97379.65;;;7.59;56.12
77855;BME280;67046;50.088;14.336;2023-03-19T02:07:28;97377.38;;;7.59;56.13
77855;BME280;67046;50.088;14.336;2023-03-19T02:08:04;97374.42;;;7.58;56.02
77855;BME280;67046;50.088;14.336;2023-03-19T02:08:36;97379.25;;;7.58;56.19
77855;BME280;67046;50.088;14.336;2023-03-19T02:09:08;97378.77;;;7.58;56.16
77855;BME280;67046;50.088;14.336;2023-03-19T02:09:40;97376.30;;;7.57;56.36
77855;BME280;67046;50.088;14.336;2023-03-19T02:10:14;97380.45;;;7.58;56.03
77855;BME280;67046;50.088;14.336;2023-03-19T02:10:46;97383.78;;;7.58;56.26
77855;BME280;67046;50.088;14.336;2023-03-19T02:11:18;97383.51;;;7.58;56.44
77855;BME280;67046;50.088;14.336;2023-03-19T02:11:51;97384.71;;;7.57;56.20
77855;BME280;67046;50.088;14.336;2023-03-19T02:12:23;97386.30;;;7.58;56.11
77855;BME280;67046;50.088;14.336;2023-03-19T02:12:54;97384.52;;;7.58;56.23
77855;BME280;67046;50.088;14.336;2023-03-19T02:13:27;97382.86;;;7.57;56.17
77855;BME280;67046;50.088;14.336;2023-03-19T02:13:58;97381.94;;;7.57;55.94
77855;BME280;67046;50.088;14.336;2023-03-19T02:14:29;97382.56;;;7.58;56.29
77855;BME280;67046;50.088;14.336;2023-03-19T02:15:01;97383.45;;;7.58;55.89
77855;BME280;67046;50.088;14.336;2023-03-19T02:15:32;97382.73;;;7.58;56.29
77855;BME280;67046;50.088;14.336;2023-03-19T02:16:04;97382.36;;;7.58;56.14
77855;BME280;67046;50.088;14.336;2023-03-19T02:16:36;97378.05;;;7.57;56.10
77855;BME280;67046;50.088;14.336;2023-03-19T02:17:08;97382.56;;;7.58;56.19
77855;BME280;67046;50.088;14.336;2023-03-19T02:17:41;97380.73;;;7.57;56.23
77855;BME280;67046;50.088;14.336;2023-03-19T02:18:12;97381.20;;;7.58;56.30
77855;BME280;67046;50.088;14.336;2023-03-19T02:18:44;97379.80;;;7.57;56.48
77855;BME280;67046;50.088;14.336;2023-03-19T02:19:24;97378.99;;;7.56;56.23
77855;BME280;67046;50.088;14.336;2023-03-19T02:20:59;97380.88;;;7.55;56.52
77855;BME280;67046;50.088;14.336;2023-03-19T02:21:32;97378.23;;;7.49;56.67
77855;BME280;67046;50.088;14.336;2023-03-19T02:22:04;97377.80;;;7.49;56.35
77855;BME280;67046;50.088;14.336;2023-03-19T02:22:40;97377.20;;;7.48;56.48
77855;BME280;67046;50.088;14.336;2023-03-19T02:24:35;97382.23;;;7.44;56.81
77855;BME280;67046;50.088;14.336;2023-03-19T02:25:27;97380.05;;;7.40;56.58
77855;BME280;67046;50.088;14.336;2023-03-19T02:26:09;97380.95;;;7.38;56.56
77855;BME280;67046;50.088;14.336;2023-03-19T02:26:42;97382.17;;;7.35;56.81
77855;BME280;67046;50.088;14.336;2023-03-19T02:27:14;97380.27;;;7.35;56.51
77855;BME280;67046;50.088;14.336;2023-03-19T02:27:46;97379.37;;;7.36;56.79
77855;BME280;67046;50.088;14.336;2023-03-19T02:28:19;97377.69;;;7.35;56.57
77855;BME280;67046;50.088;14.336;2023-03-19T02:28:52;97377.33;;;7.35;56.98
77855;BME280;67046;50.088;14.336;2023-03-19T02:29:24;97379.52;;;7.34;56.73
77855;BME280;67046;50.088;14.336;2023-03-19T02:29:55;97382.30;;;7.35;56.72
77855;BME280;67046;50.088;14.336;2023-03-19T02:30:31;97383.39;;;7.35;56.58
77855;BME280;67046;50.088;14.336;2023-03-19T02:31:04;97378.75;;;7.34;56.84
77855;BME280;67046;50.088;14.336;2023-03-19T02:31:36;97380.70;;;7.32;56.81
77855;BME280;67046;50.088;14.336;2023-03-19T02:32:07;97379.86;;;7.32;56.84
77855;BME280;67046;50.088;14.336;2023-03-19T02:32:39;97384.33;;;7.32;56.84
77855;BME280;67046;50.088;14.336;2023-03-19T02:33:15;97380.88;;;7.31;56.56
77855;BME280;67046;50.088;14.336;2023-03-19T02:34:31;97381.25;;;7.31;56.70
77855;BME280;67046;50.088;14.336;2023-03-19T02:34:57;97383.77;;;7.27;56.76
77855;BME280;67046;50.088;14.336;2023-03-19T02:35:32;97380.95;;;7.26;56.99
77855;BME280;67046;50.088;14.336;2023-03-19T02:36:05;97383.41;;;7.26;56.98
77855;BME280;67046;50.088;14.336;2023-03-19T02:36:45;97382.49;;;7.25;56.99
77855;BME280;67046;50.088;14.336;2023-03-19T02:37:21;97380.52;;;7.23;57.17
77855;BME280;67046;50.088;14.336;2023-03-19T02:37:54;97383.14;;;7.22;57.36
77855;BME280;67046;50.088;14.336;2023-03-19T02:38:26;97380.03;;;7.21;57.44
77855;BME280;67046;50.088;14.336;2023-03-19T02:39:03;97385.94;;;7.21;57.07
77855;BME280;67046;50.088;14.336;2023-03-19T02:39:53;97383.64;;;7.21;57.11
77855;BME280;67046;50.088;14.336;2023-03-19T02:40:33;97384.78;;;7.19;57.52
77855;BME280;67046;50.088;14.336;2023-03-19T02:41:07;97385.23;;;7.18;57.37
77855;BME280;67046;50.088;14.336;2023-03-19T02:41:40;97386.30;;;7.17;57.52
77855;BME280;67046;50.088;14.336;2023-03-19T02:42:13;97386.98;;;7.17;57.47
77855;BME280;67046;50.088;14.336;2023-03-19T02:42:45;97388.34;;;7.16;57.51
77855;BME280;67046;50.088;14.336;2023-03-19T02:43:17;97389.20;;;7.15;57.94
77855;BME280;67046;50.088;14.336;2023-03-19T02:43:50;97392.02;;;7.15;57.40
77855;BME280;67046;50.088;14.336;2023-03-19T02:44:21;97393.38;;;7.14;58.03
77855;BME280;67046;50.088;14.336;2023-03-19T02:44:53;97390.88;;;7.10;58.19
77855;BME280;67046;50.088;14.336;2023-03-19T02:45:28;97394.56;;;7.10;58.05
77855;BME280;67046;50.088;14.336;2023-03-19T02:46:01;97392.90;;;7.09;57.80
77855;BME280;67046;50.088;14.336;2023-03-19T02:46:33;97393.13;;;7.07;58.23
77855;BME280;67046;50.088;14.336;2023-03-19T02:47:05;97393.49;;;7.07;57.83
77855;BME280;67046;50.088;14.336;2023-03-19T02:47:36;97395.33;;;7.07;57.79
77855;BME280;67046;50.088;14.336;2023-03-19T02:48:07;97394.90;;;7.07;58.04
77855;BME280;67046;50.088;14.336;2023-03-19T02:48:39;97395.73;;;7.06;57.93
77855;BME280;67046;50.088;14.336;2023-03-19T02:49:11;97395.60;;;7.06;57.83
77855;BME280;67046;50.088;14.336;2023-03-19T02:49:43;97395.44;;;7.06;58.50
77855;BME280;67046;50.088;14.336;2023-03-19T02:50:14;97398.75;;;7.06;58.63
77855;BME280;67046;50.088;14.336;2023-03-19T02:50:46;97400.33;;;7.06;58.38
77855;BME280;67046;50.088;14.336;2023-03-19T02:51:17;97399.27;;;7.06;58.28
77855;BME280;67046;50.088;14.336;2023-03-19T02:51:49;97400.45;;;7.05;58.49
77855;BME280;67046;50.088;14.336;2023-03-19T02:52:21;97397.83;;;7.05;58.34
77855;BME280;67046;50.088;14.336;2023-03-19T02:52:53;97401.44;;;7.04;58.51
77855;BME280;67046;50.088;14.336;2023-03-19T02:53:24;97400.59;;;7.04;58.50
77855;BME280;67046;50.088;14.336;2023-03-19T02:53:56;97405.54;;;7.04;58.76
77855;BME280;67046;50.088;14.336;2023-03-19T02:54:27;97405.05;;;7.04;58.70
77855;BME280;67046;50.088;14.336;2023-03-19T02:54:58;97405.29;;;7.03;58.25
77855;BME280;67046;50.088;14.336;2023-03-19T02:55:30;97404.56;;;7.03;58.42
77855;BME280;67046;50.088;14.336;2023-03-19T02:56:02;97400.73;;;7.03;58.61
77855;BME280;67046;50.088;14.336;2023-03-19T02:56:33;97402.70;;;7.04;58.42